Trail Marcel Rossi / 20 KM 1040 D+

61 participants comptabilisés



Classement général

Date de la course :
Le 25/05/2017. Départ à 09:30

RÉSULTATS PDF

Class. Participant Dossard Clt / Cat Clt / Sexe Temps Moyenne Club
Class. Participant Dossard Clt / Cat Clt / Sexe Temps Moyenne Club
1Jean Laurent DOMINICI4231 JU M1 M2:03:339.71
2Spencer BROOK4221 V1 M2 M2:04:149.66
3Francis VINCIGUERRA4241 SE M3 M2:05:229.57
4Bruno ROBISSON4291 EA M4 M2:08:239.35
5Jean Pierre SCIPILLITI4252 V1 M5 M2:11:209.14
6Walter DROMART4133 V1 M6 M2:11:399.12
7Joao Pedro ADAO DA SILVA4512 EA M7 M2:13:099.01
8Olivier HERRAND4423 EA M8 M2:13:498.97
9Augustin VIENNE4282 SE M9 M2:15:318.85
10Jean Baptiste HEMMER4453 SE M10 M2:18:398.65
11Thierry BASTIERA4534 V1 M11 M2:21:298.48
12Arnaud BORREGUERO4325 V1 M12 M2:24:038.33
13Alex MANZANO4624 EA M13 M2:24:568.28
14Quentin DEPLAGNE4094 SE M14 M2:26:078.21
15Aurelien MARECHAL4035 SE M15 M2:26:478.18
16Noel MARTELLI4206 V1 M16 M2:28:138.1
17Mathis OTTAVI MENAGER4365 EA M17 M2:28:418.07
18Stephane MOREAU4616 SE M18 M2:29:468.01
19Xavier SAVARY4056 EA M19 M2:31:007.95
20Angelique QUATELIVE4521 SE F1 F2:31:297.92
21Thierry BODO4317 EA M20 M2:37:007.64
22Dimitri WASIELEWSKI4638 EA M21 M2:37:477.61
23Jean GIORGI4101 V2 M22 M2:37:487.6
24Charles STRABONI4487 V1 M23 M2:43:117.35
25Jean Louis CINQUI4218 V1 M24 M2:43:347.34
26Jean Louis MALASPINA4072 V2 M25 M2:44:077.31
27Sebastien COMBETTE4403 V2 M26 M2:45:457.24
28Alicia ORSINI4492 SE F2 F2:46:307.21
29Karine CHOBELET4351 V1 F3 F2:49:207.09
30Laurent GELMINI4339 V1 M27 M2:49:217.09
31Michel MAESTRALI4029 EA M28 M2:50:077.05
32Louis NATALI45910 V1 M29 M2:51:366.99
33Mathieu D ANGELO4377 SE M30 M2:54:466.87
34Jean Pierre MARCHETTI44611 V1 M31 M2:57:106.77
35Jean Claude MATTEI42610 EA M32 M2:57:426.75
36Mathieu FRANCESCHINI41811 EA M33 M2:57:596.74
37Pierre FRANCESCHINI4194 V2 M34 M2:57:596.74
38Augustin FRANCESCHINI4165 V2 M35 M3:00:366.64
39Cedric ORTICONI4438 SE M36 M3:03:426.53
40Laurent VALENTINI45712 V1 M37 M3:03:426.53
41Anthony BARONNI41512 EA M38 M3:04:216.51
42Jean Francois FRANCESCHINI4609 SE M39 M3:05:556.45
43Pia SALVATORI4341 EA F4 F3:06:046.45
44Jacques GIACOBBI44410 SE M40 M3:06:066.45
45Yvonnic MICHELET45413 EA M41 M3:10:006.32
46Christophe FILIPPI40113 V1 M42 M3:17:396.07
47Sophie ORSINI4503 SE F5 F3:17:396.07
48Frederic BIANCO41414 V1 M43 M3:17:396.07
49Marie Laure SAVARY4042 EA F6 F3:22:115.94
50Stephane RUSPINI44715 V1 M44 M3:24:545.86
51Cecile COLOMBANI4552 V1 F7 F3:30:155.71
52Vivien LUCIANI40811 SE M45 M3:30:255.7
53Esther BOSO4303 EA F8 F3:32:015.66
54Christopher ANNOOT42712 SE M46 M3:39:265.47
55Paul MAZZONI43914 EA M47 M3:39:585.46
56Alessia GAIA4413 V1 F9 F3:39:595.45
57Daniel RAMSDAM4121 V3 M48 M3:44:075.35
58Mohammed ERAMILI45615 EA M49 M3:46:005.31
59Christophe OTTAVI45816 V1 M50 M3:49:025.24
60Martin FRANCESCHINI41716 EA M51 M3:51:355.18
61Paul BERTRAND4116 V2 M52 M4:11:534.76

TOUTES LES COURSES

Applicazione KRONO © Versione 2.2

Made in Corsica da NUBEUS SAS ©, tutti diritti riservati.